createdAt,value
2023-01-13T00:01:57.172Z,5.18
2023-01-13T00:04:27.345Z,5.05
2023-01-13T00:06:57.760Z,5.63
2023-01-13T00:09:28.030Z,4.75
2023-01-13T00:11:58.542Z,5.40
2023-01-13T00:14:30.863Z,7.28
2023-01-13T00:17:01.357Z,5.32
2023-01-13T00:19:31.716Z,8.15
2023-01-13T00:22:02.300Z,7.55
2023-01-13T00:24:33.171Z,5.65
2023-01-13T00:27:03.708Z,5.78
2023-01-13T00:29:34.023Z,7.90
2023-01-13T00:32:04.650Z,7.30
2023-01-13T00:34:34.964Z,7.15
2023-01-13T00:37:05.406Z,6.78
2023-01-13T00:39:35.419Z,4.00
2023-01-13T00:42:24.632Z,4.20
2023-01-13T00:44:54.797Z,5.07
2023-01-13T00:47:25.066Z,4.93
2023-01-13T00:49:55.614Z,7.22
2023-01-13T00:52:25.610Z,4.00
2023-01-13T00:54:56.219Z,3.38
2023-01-13T00:57:26.289Z,3.85
2023-01-13T00:59:57.790Z,3.22
2023-01-13T01:02:28.555Z,4.57
2023-01-13T01:05:01.142Z,2.97
2023-01-13T01:07:31.246Z,4.13
2023-01-13T01:10:01.719Z,3.47
2023-01-13T01:15:01.003Z,5.95
2023-01-13T01:17:31.678Z,6.50
2023-01-13T01:20:01.769Z,3.75
2023-01-13T01:22:32.555Z,2.90
2023-01-13T01:25:02.981Z,3.55
2023-01-13T01:27:33.563Z,4.55
2023-01-13T01:30:03.845Z,5.95
2023-01-13T01:32:36.278Z,3.60
2023-01-13T01:35:06.748Z,4.75
2023-01-13T01:37:37.466Z,4.30
2023-01-13T01:40:08.124Z,3.88
2023-01-13T01:42:57.033Z,4.68
2023-01-13T01:45:29.520Z,4.38
2023-01-13T01:48:05.357Z,4.38
2023-01-13T01:50:36.221Z,2.88
2023-01-13T01:53:16.649Z,3.58
2023-01-13T01:55:47.274Z,6.40
2023-01-13T01:58:22.991Z,5.50
2023-01-13T02:00:54.195Z,3.00
2023-01-13T02:03:25.279Z,4.32
2023-01-13T02:05:55.665Z,3.10
2023-01-13T02:08:26.579Z,4.43
2023-01-13T02:10:56.706Z,6.13
2023-01-13T02:13:27.252Z,3.30
2023-01-13T02:16:23.044Z,5.85
2023-01-13T02:18:56.162Z,4.43
2023-01-13T02:21:50.167Z,4.68
2023-01-13T02:24:55.756Z,5.78
2023-01-13T02:27:44.846Z,4.53
2023-01-13T02:30:49.173Z,5.15
2023-01-13T02:33:37.117Z,5.97
2023-01-13T02:36:33.268Z,5.97
2023-01-13T02:39:26.595Z,7.63
2023-01-13T02:42:26.135Z,8.50
2023-01-13T02:45:28.072Z,7.82
2023-01-13T02:48:01.192Z,7.57
2023-01-13T02:50:45.914Z,4.85
2023-01-13T02:53:35.712Z,7.90
2023-01-13T02:56:08.271Z,6.63
2023-01-13T02:58:42.443Z,6.80
2023-01-13T03:01:12.772Z,7.07
2023-01-13T03:03:45.066Z,6.10
2023-01-13T03:06:31.075Z,10.98
2023-01-13T03:09:15.758Z,6.07
2023-01-13T03:12:22.687Z,7.05
2023-01-13T03:15:17.084Z,7.97
2023-01-13T03:18:10.391Z,7.55
2023-01-13T03:20:49.441Z,6.32
2023-01-13T03:23:34.940Z,8.68
2023-01-13T03:26:19.829Z,6.35
2023-01-13T03:29:00.297Z,7.32
2023-01-13T03:31:36.291Z,5.45
2023-01-13T03:34:13.126Z,7.72
2023-01-13T03:36:47.635Z,5.85
2023-01-13T03:39:23.830Z,7.43
2023-01-13T03:42:01.170Z,6.68
2023-01-13T03:44:43.779Z,7.53
2023-01-13T03:47:56.995Z,7.85
2023-01-13T03:50:34.704Z,9.00
2023-01-13T03:53:12.274Z,7.13
2023-01-13T03:55:49.063Z,11.07
2023-01-13T03:58:32.001Z,6.35
2023-01-13T04:01:37.603Z,5.57
2023-01-13T04:04:24.429Z,6.53
2023-01-13T04:06:59.605Z,7.00
2023-01-13T04:09:42.723Z,7.13
2023-01-13T04:12:56.069Z,10.23
2023-01-13T04:15:29.592Z,7.22
2023-01-13T04:18:27.288Z,8.77
2023-01-13T04:21:00.317Z,6.78
2023-01-13T04:23:30.936Z,7.75
2023-01-13T04:26:01.700Z,7.85
2023-01-13T04:28:31.936Z,8.15
2023-01-13T04:31:02.936Z,8.88
2023-01-13T04:33:33.035Z,8.60
2023-01-13T04:36:03.649Z,8.80
2023-01-13T04:38:33.733Z,8.52
2023-01-13T04:41:03.612Z,11.02
2023-01-13T04:43:34.293Z,12.68
2023-01-13T04:46:04.539Z,11.10
2023-01-13T04:48:35.464Z,9.25
2023-01-13T04:51:05.819Z,9.50
2023-01-13T04:53:36.322Z,7.57
2023-01-13T04:56:06.817Z,10.23
2023-01-13T04:58:37.304Z,8.52
2023-01-13T05:01:07.570Z,8.73
2023-01-13T05:03:38.152Z,7.57
2023-01-13T05:06:08.540Z,9.32
2023-01-13T05:08:39.064Z,7.70
2023-01-13T05:11:28.999Z,7.57
2023-01-13T05:14:17.809Z,11.90
2023-01-13T05:17:03.733Z,5.78
2023-01-13T05:19:36.800Z,9.35
2023-01-13T05:22:25.508Z,11.50
2023-01-13T05:25:14.337Z,7.55
2023-01-13T05:27:44.387Z,9.13
2023-01-13T05:30:15.345Z,6.35
2023-01-13T05:32:46.362Z,8.30
2023-01-13T05:35:18.076Z,6.72
2023-01-13T05:37:48.889Z,6.50
2023-01-13T05:40:39.283Z,10.98
2023-01-13T05:43:22.290Z,6.65
2023-01-13T05:46:03.533Z,8.75
2023-01-13T05:48:39.503Z,6.22
2023-01-13T05:51:12.999Z,8.30
2023-01-13T05:53:43.432Z,7.00
2023-01-13T05:56:14.163Z,8.63
2023-01-13T05:58:44.179Z,6.90
2023-01-13T06:01:14.931Z,11.43
2023-01-13T06:03:45.859Z,8.23
2023-01-13T06:06:15.994Z,8.35
2023-01-13T06:08:46.440Z,8.25
2023-01-13T06:11:16.628Z,10.27
2023-01-13T06:13:47.195Z,9.07
2023-01-13T06:16:17.388Z,8.60
2023-01-13T06:18:48.000Z,8.63
2023-01-13T06:21:18.107Z,10.55
2023-01-13T06:23:48.679Z,8.73
2023-01-13T06:26:22.050Z,8.30
2023-01-13T06:28:52.618Z,11.60
2023-01-13T06:31:23.096Z,7.75
2023-01-13T06:33:58.714Z,9.90
2023-01-13T06:36:36.482Z,8.60
2023-01-13T06:39:07.891Z,9.23
2023-01-13T06:41:56.632Z,11.10
2023-01-13T06:44:27.153Z,11.65
2023-01-13T06:46:57.461Z,11.48
2023-01-13T06:49:28.068Z,11.32
2023-01-13T06:51:58.141Z,13.65
2023-01-13T06:54:28.917Z,9.63
2023-01-13T06:56:59.072Z,9.68
2023-01-13T06:59:29.820Z,11.55
2023-01-13T07:02:00.046Z,13.40
2023-01-13T07:04:30.698Z,11.73
2023-01-13T07:07:00.904Z,9.38
2023-01-13T07:09:31.555Z,10.55
2023-01-13T07:12:01.949Z,12.18
2023-01-13T07:14:50.839Z,10.27
2023-01-13T07:17:26.217Z,8.82
2023-01-13T07:19:56.626Z,9.05
2023-01-13T07:22:26.526Z,14.40
2023-01-13T07:24:57.843Z,12.00
2023-01-13T07:27:27.980Z,11.88
2023-01-13T07:29:58.401Z,10.40
2023-01-13T07:32:28.529Z,13.80
2023-01-13T07:35:05.668Z,9.57
2023-01-13T07:37:37.680Z,8.40
2023-01-13T07:40:09.127Z,11.93
2023-01-13T07:42:58.333Z,12.27
2023-01-13T07:45:28.959Z,11.38
2023-01-13T07:47:59.148Z,11.77
2023-01-13T07:50:29.801Z,12.20
2023-01-13T07:53:00.726Z,9.90
2023-01-13T07:55:31.476Z,13.57
2023-01-13T07:58:01.688Z,11.20
2023-01-13T08:00:32.264Z,10.00
2023-01-13T08:03:02.651Z,14.23
2023-01-13T08:05:33.421Z,10.93
2023-01-13T08:08:04.181Z,8.93
2023-01-13T08:10:34.770Z,11.27
2023-01-13T08:15:55.608Z,10.85
2023-01-13T08:18:25.756Z,11.25
2023-01-13T08:20:56.567Z,8.45
2023-01-13T08:23:26.653Z,7.80
2023-01-13T08:26:00.730Z,11.43
2023-01-13T08:28:31.187Z,10.38
2023-01-13T08:31:03.421Z,9.77
2023-01-13T08:33:34.546Z,12.15
2023-01-13T08:36:07.839Z,11.40
2023-01-13T08:38:39.660Z,9.45
2023-01-13T08:41:12.391Z,12.30
2023-01-13T08:43:42.561Z,11.07
2023-01-13T08:46:13.541Z,9.88
2023-01-13T08:48:43.795Z,8.52
2023-01-13T08:51:14.700Z,14.32
2023-01-13T08:53:44.756Z,10.55
2023-01-13T08:56:16.132Z,12.70
2023-01-13T08:58:46.708Z,14.48
2023-01-13T09:01:23.953Z,11.23
2023-01-13T09:03:55.362Z,12.43
2023-01-13T09:06:25.687Z,14.23
2023-01-13T09:08:56.557Z,12.82
2023-01-13T09:11:52.686Z,15.80
2023-01-13T09:14:26.357Z,13.82
2023-01-13T09:16:56.672Z,13.18
2023-01-13T09:19:28.330Z,12.48
2023-01-13T09:21:59.194Z,10.40
2023-01-13T09:24:30.405Z,9.35
2023-01-13T09:27:00.502Z,10.32
2023-01-13T09:29:31.143Z,14.32
2023-01-13T09:32:01.422Z,9.25
2023-01-13T09:34:50.361Z,5.43
2023-01-13T09:37:20.625Z,8.30
2023-01-13T09:39:51.139Z,9.55
2023-01-13T09:42:55.683Z,6.85
2023-01-13T09:45:44.461Z,10.05
2023-01-13T09:48:52.867Z,7.90
2023-01-13T09:51:35.934Z,7.80
2023-01-13T09:54:17.715Z,6.07
2023-01-13T09:56:48.417Z,8.68
2023-01-13T09:59:18.552Z,8.80
2023-01-13T10:02:14.827Z,8.68
2023-01-13T10:04:44.875Z,8.10
2023-01-13T10:07:16.570Z,6.38
2023-01-13T10:09:55.110Z,7.03
2023-01-13T10:12:46.492Z,9.23
2023-01-13T10:15:24.480Z,8.60
2023-01-13T10:18:23.749Z,8.68
2023-01-13T10:21:32.148Z,8.93
2023-01-13T10:24:20.687Z,4.88
2023-01-13T10:26:56.562Z,8.32
2023-01-13T10:29:29.715Z,6.65
2023-01-13T10:32:02.071Z,9.43
2023-01-13T10:34:33.202Z,6.18
2023-01-13T10:37:09.517Z,6.93
2023-01-13T10:39:46.614Z,7.85
2023-01-13T10:42:24.085Z,7.35
2023-01-13T10:44:58.075Z,7.53
2023-01-13T10:47:33.859Z,5.63
2023-01-13T10:50:13.028Z,7.20
2023-01-13T10:53:01.090Z,7.65
2023-01-13T10:55:39.706Z,9.68
2023-01-13T10:58:22.738Z,6.28
2023-01-13T11:01:02.417Z,9.25
2023-01-13T11:03:44.656Z,4.95
2023-01-13T11:06:26.793Z,6.03
2023-01-13T11:09:04.245Z,8.05
2023-01-13T11:11:42.330Z,10.45
2023-01-13T11:14:42.954Z,7.65
2023-01-13T11:17:29.819Z,5.93
2023-01-13T11:20:13.360Z,6.43
2023-01-13T11:22:50.629Z,6.95
2023-01-13T11:25:35.066Z,3.88
2023-01-13T11:28:35.177Z,7.20
2023-01-13T11:31:10.356Z,5.40
2023-01-13T11:33:53.813Z,7.90
2023-01-13T11:36:33.607Z,8.20
2023-01-13T11:39:49.129Z,6.72
2023-01-13T11:42:36.577Z,5.18
2023-01-13T11:45:17.832Z,9.40
2023-01-13T11:47:51.595Z,6.97
2023-01-13T11:50:36.197Z,6.97
2023-01-13T11:53:17.153Z,4.47
2023-01-13T11:56:08.876Z,5.90
2023-01-13T11:59:29.156Z,8.23
2023-01-13T12:02:24.107Z,8.00
2023-01-13T12:04:57.276Z,10.70
2023-01-13T12:07:45.987Z,5.80
2023-01-13T12:10:53.550Z,7.15
2023-01-13T12:13:44.651Z,5.50
2023-01-13T12:16:27.059Z,6.65
2023-01-13T12:19:26.891Z,10.40
2023-01-13T12:22:22.287Z,10.60
2023-01-13T12:25:14.376Z,7.38
2023-01-13T12:28:15.745Z,4.35
2023-01-13T12:30:56.549Z,5.55
2023-01-13T12:33:51.535Z,5.07
2023-01-13T12:37:06.216Z,5.35
2023-01-13T12:39:45.557Z,6.47
2023-01-13T12:42:53.005Z,4.93
2023-01-13T12:45:27.139Z,4.45
2023-01-13T12:47:58.166Z,4.40
2023-01-13T12:50:28.626Z,5.72
2023-01-13T12:52:59.692Z,6.35
2023-01-13T12:55:37.588Z,5.43
2023-01-13T12:58:07.664Z,6.47
2023-01-13T13:01:02.150Z,3.55
2023-01-13T13:03:37.283Z,5.28
2023-01-13T13:06:29.908Z,5.53
2023-01-13T13:09:30.616Z,5.25
2023-01-13T13:12:51.118Z,4.55
2023-01-13T13:15:29.905Z,6.63
2023-01-13T13:18:35.503Z,3.80
2023-01-13T13:21:10.283Z,5.07
2023-01-13T13:23:51.395Z,4.20
2023-01-13T13:26:25.936Z,4.15
2023-01-13T13:28:56.416Z,5.22
2023-01-13T13:31:34.919Z,5.95
2023-01-13T13:34:23.786Z,4.70
2023-01-13T13:37:08.977Z,4.32
2023-01-13T13:40:02.616Z,4.22
2023-01-13T13:43:11.507Z,6.25
2023-01-13T13:46:10.841Z,6.05
2023-01-13T13:48:41.120Z,2.90
2023-01-13T13:51:32.492Z,4.65
2023-01-13T13:54:03.890Z,5.30
2023-01-13T13:56:41.991Z,4.88
2023-01-13T13:59:28.410Z,3.65
2023-01-13T14:02:04.599Z,3.38
2023-01-13T14:07:21.818Z,4.10
2023-01-13T14:09:57.737Z,3.38
2023-01-13T14:12:29.175Z,5.47
2023-01-13T22:48:38.276Z,2.97
2023-01-13T22:51:14.000Z,7.28
2023-01-13T22:53:44.651Z,6.03
2023-01-13T22:56:22.088Z,8.18
2023-01-13T22:58:57.254Z,6.00
2023-01-13T23:01:31.237Z,6.20
2023-01-13T23:04:02.992Z,6.22
2023-01-13T23:06:35.459Z,6.05
2023-01-13T23:09:05.854Z,4.97
2023-01-13T23:11:36.929Z,7.72
2023-01-13T23:14:09.612Z,7.28
2023-01-13T23:16:42.206Z,5.95
2023-01-13T23:19:13.224Z,6.15
2023-01-13T23:21:44.234Z,5.47
2023-01-13T23:24:14.722Z,7.60
2023-01-13T23:26:45.415Z,3.45
2023-01-13T23:29:16.105Z,8.40
2023-01-13T23:31:48.363Z,6.30
2023-01-13T23:34:18.796Z,4.55
2023-01-13T23:36:49.765Z,5.85
2023-01-13T23:39:22.771Z,6.57
2023-01-13T23:41:53.819Z,6.25
2023-01-13T23:44:24.425Z,3.28
2023-01-13T23:46:55.049Z,6.57
2023-01-13T23:49:31.260Z,6.28
2023-01-13T23:54:31.452Z,5.57
2023-01-13T23:57:02.418Z,6.97
2023-01-13T23:59:32.660Z,8.90
